首页
METAR-TAF:

METAR-TAF

机场 :

烏法, 俄罗斯

纬度: 54-43-48N, 经度: 055-55-48E, 海拔: 137米

当前天气观测

该预报发布于30分钟前的20:30 UTC
静风
温度 14°C
湿度 88%
气压 1021 hPa
能见度10公里或以上
1500米以下无云,无积雨云

METAR: UWUU 222030Z 00000MPS CAVOK 14/12 Q1021 R32L/0///60 NOSIG

时间: 02:00 (21:00 UTC)

预报

该预报发布于1小时和6分钟前的19:54 UTC
预报有效从22日的 21点(UTC)到 23日的 21点(UTC)
风速6节,风向
能见度10公里或以上
散云层高于2000英尺
短暂存在
从 22日的 21点(UTC)到 23日的 05点(UTC)
风速2节,风向多变
能見度: 0200
层高于200英尺
短暂存在
从 23日的 05点(UTC)到 23日的 12点(UTC)
风速6节,风向西转西南,有时为16节阵风
多云层高于2000英尺, 积雨云.
小阵雨
从 23日的 1200点(UTC)
风速10节,风向北转西北,有时为21节阵风
能见度10公里或以上
多云层高于3000英尺
短暂存在
从 23日的 12点(UTC)到 23日的 21点(UTC)
能見度: 3100
多云层高于1100英尺, 积雨云.
小阵雨

TAF: UWUU 221954Z 2221/2321 19003MPS 9999 SCT020 TEMPO 2221/2305 VRB01MPS 0200 FG VV002 TEMPO 2305/2312 25003G08MPS -SHRA BKN020CB FM231200 33005G11MPS 9999 BKN030 TEMPO 2312/2321 3100 -SHRA BKN011CB

超过4000个机场的气象观测和天气预报(METAR&TAF报告)。

可查询的气象台以黄色和红色小点在地图上表示。

将鼠标移到小点上方,可查看气象台名称。

然后点击查看天气观测和预报。

如需切换地图:点击带黑十字的绿色按钮放大地图;点击带横线的绿色按钮缩小地图;或者点击绿色箭头查看邻近地区的地图。


METAR-TAF: